Terminal Aerodrome Forecast
Issued by NWS Wilmington, OH

Current Version | Previous Version | Graphics & Text | Print | Product List | Glossary On
Versions: 1 2 3 4 5 6 7 8 9 10 11 12 13 14 15 16 17 18 19 20 21 22 23
471
FTUS41 KILN 191406 AAB
TAFDAY
TAF AMD
KDAY 191406Z 1914/2012 29007KT 3SM BR OVC003
     FM191500 25006KT P6SM OVC010
     FM191600 25006KT P6SM BKN025
     FM191700 25005KT P6SM FEW025 SCT040
     FM192000 25006KT P6SM FEW025 FEW150
     FM200500 00000KT P6SM SCT130
     FM201100 12003KT P6SM SCT030=

USA.gov is the U.S. government's official web portal to all federal, state and local government web resources and services.